createdAt,value
2023-05-17T00:01:16.678Z,0.90
2023-05-17T00:03:44.158Z,0.60
2023-05-17T00:06:11.807Z,0.77
2023-05-17T00:08:39.230Z,0.63
2023-05-17T00:11:06.703Z,0.87
2023-05-17T00:13:34.180Z,0.60
2023-05-17T00:16:03.128Z,0.50
2023-05-17T00:18:30.651Z,0.87
2023-05-17T00:20:58.168Z,0.67
2023-05-17T00:23:25.632Z,0.50
2023-05-17T00:25:53.017Z,0.80
2023-05-17T00:28:20.389Z,0.50
2023-05-17T00:30:47.759Z,0.80
2023-05-17T00:33:16.911Z,0.67
2023-05-17T00:35:44.307Z,1.00
2023-05-17T00:38:12.331Z,1.27
2023-05-17T00:40:39.870Z,0.60
2023-05-17T00:43:07.397Z,0.70
2023-05-17T00:45:35.278Z,1.00
2023-05-17T00:48:03.505Z,0.60
2023-05-17T00:50:32.690Z,0.70
2023-05-17T00:53:00.449Z,0.67
2023-05-17T00:55:28.571Z,0.63
2023-05-17T00:57:56.695Z,0.57
2023-05-17T01:00:24.737Z,0.80
2023-05-17T01:02:52.616Z,0.80
2023-05-17T01:05:20.235Z,0.63
2023-05-17T01:07:49.163Z,0.60
2023-05-17T01:10:16.953Z,0.70
2023-05-17T01:12:49.027Z,0.60
2023-05-17T01:15:20.791Z,0.67
2023-05-17T01:17:52.238Z,0.70
2023-05-17T01:20:22.165Z,0.63
2023-05-17T01:22:54.581Z,0.83
2023-05-17T01:25:28.121Z,0.80
2023-05-17T01:27:59.668Z,0.80
2023-05-17T01:30:27.576Z,0.70
2023-05-17T01:32:56.576Z,0.93
2023-05-17T01:35:24.033Z,0.70
2023-05-17T01:37:54.008Z,0.90
2023-05-17T01:40:21.986Z,0.90
2023-05-17T01:42:50.635Z,0.90
2023-05-17T01:45:24.115Z,1.03
2023-05-17T01:47:54.159Z,0.80
2023-05-17T01:50:24.461Z,0.93
2023-05-17T01:52:54.356Z,0.73
2023-05-17T01:55:26.916Z,0.90
2023-05-17T01:57:56.394Z,0.87
2023-05-17T02:00:26.231Z,1.20
2023-05-17T02:02:53.956Z,1.20
2023-05-17T02:05:21.551Z,1.30
2023-05-17T02:07:49.015Z,1.40
2023-05-17T02:10:18.258Z,1.20
2023-05-17T02:12:45.690Z,1.33
2023-05-17T02:15:13.865Z,1.50
2023-05-17T02:17:43.012Z,1.30
2023-05-17T02:20:12.134Z,1.37
2023-05-17T02:22:40.094Z,1.53
2023-05-17T02:25:08.237Z,1.17
2023-05-17T02:27:36.084Z,1.30
2023-05-17T02:30:04.574Z,1.40
2023-05-17T02:32:32.210Z,1.13
2023-05-17T02:35:01.044Z,1.17
2023-05-17T02:37:28.765Z,1.10
2023-05-17T02:39:56.354Z,1.40
2023-05-17T02:42:23.905Z,1.33
2023-05-17T02:44:53.259Z,1.30
2023-05-17T02:47:21.172Z,1.17
2023-05-17T02:49:49.161Z,1.47
2023-05-17T02:52:18.051Z,1.40
2023-05-17T02:54:45.781Z,1.20
2023-05-17T02:57:13.421Z,1.50
2023-05-17T02:59:40.991Z,1.30
2023-05-17T03:02:08.487Z,1.30
2023-05-17T03:04:36.950Z,1.30
2023-05-17T03:07:07.004Z,1.33
2023-05-17T03:09:37.287Z,1.20
2023-05-17T03:12:05.249Z,1.57
2023-05-17T03:14:34.881Z,1.23
2023-05-17T03:17:03.051Z,1.40
2023-05-17T03:19:31.690Z,1.43
2023-05-17T03:21:59.274Z,1.73
2023-05-17T03:24:26.876Z,1.40
2023-05-17T03:26:56.004Z,1.13
2023-05-17T03:29:23.489Z,1.13
2023-05-17T03:31:52.379Z,1.37
2023-05-17T03:34:20.079Z,1.30
2023-05-17T03:36:48.403Z,1.43
2023-05-17T03:39:16.093Z,1.63
2023-05-17T03:41:43.780Z,1.37
2023-05-17T03:44:13.115Z,1.40
2023-05-17T03:46:40.567Z,1.67
2023-05-17T03:49:09.122Z,1.40
2023-05-17T03:51:36.666Z,1.63
2023-05-17T03:54:04.091Z,1.70
2023-05-17T03:56:32.414Z,1.50
2023-05-17T03:58:59.945Z,1.50
2023-05-17T04:01:29.200Z,1.53
2023-05-17T04:03:56.713Z,1.60
2023-05-17T04:06:25.563Z,1.80
2023-05-17T04:08:55.098Z,1.80
2023-05-17T04:11:24.336Z,1.90
2023-05-17T04:13:51.955Z,1.53
2023-05-17T04:16:19.606Z,1.63
2023-05-17T04:18:52.681Z,1.70
2023-05-17T04:21:20.679Z,1.80
2023-05-17T04:23:48.758Z,1.70
2023-05-17T04:26:17.469Z,2.03
2023-05-17T04:28:44.936Z,1.97
2023-05-17T04:31:14.986Z,1.90
2023-05-17T04:33:42.747Z,1.70
2023-05-17T04:36:12.274Z,1.83
2023-05-17T04:38:40.682Z,1.80
2023-05-17T04:41:10.278Z,1.90
2023-05-17T04:43:39.526Z,1.53
2023-05-17T04:46:12.291Z,1.87
2023-05-17T04:48:39.809Z,1.63
2023-05-17T04:51:07.733Z,2.30
2023-05-17T04:53:37.548Z,2.27
2023-05-17T04:56:10.725Z,2.17
2023-05-17T04:58:38.305Z,2.50
2023-05-17T05:01:06.604Z,1.67
2023-05-17T05:03:35.395Z,2.10
2023-05-17T05:06:04.092Z,2.40
2023-05-17T05:08:31.743Z,2.07
2023-05-17T05:11:01.476Z,2.03
2023-05-17T05:13:30.054Z,2.30
2023-05-17T05:15:57.572Z,2.20
2023-05-17T05:18:26.149Z,2.00
2023-05-17T05:20:54.062Z,2.47
2023-05-17T05:23:21.498Z,2.30
2023-05-17T05:25:49.898Z,2.00
2023-05-17T05:28:19.694Z,2.00
2023-05-17T05:30:47.616Z,2.17
2023-05-17T05:33:16.412Z,1.87
2023-05-17T05:35:44.123Z,2.07
2023-05-17T05:38:11.615Z,2.93
2023-05-17T05:40:39.104Z,2.67
2023-05-17T05:43:06.515Z,2.40
2023-05-17T05:45:35.305Z,2.30
2023-05-17T05:48:05.521Z,2.30
2023-05-17T05:50:33.039Z,2.30
2023-05-17T05:53:17.372Z,2.60
2023-05-17T05:55:49.762Z,2.23
2023-05-17T05:58:17.584Z,2.37
2023-05-17T06:00:47.443Z,2.50
2023-05-17T06:03:15.316Z,2.53
2023-05-17T06:05:45.217Z,2.70
2023-05-17T06:08:12.691Z,2.50
2023-05-17T06:10:40.427Z,2.60
2023-05-17T06:13:07.809Z,2.93
2023-05-17T06:15:35.653Z,2.40
2023-05-17T06:18:04.859Z,2.40
2023-05-17T06:20:32.840Z,2.97
2023-05-17T06:23:00.472Z,3.03
2023-05-17T06:25:29.344Z,3.07
2023-05-17T06:27:57.178Z,3.33
2023-05-17T06:30:25.001Z,2.90
2023-05-17T06:32:52.763Z,3.30
2023-05-17T06:35:22.386Z,3.50
2023-05-17T06:37:50.896Z,3.20
2023-05-17T06:40:18.320Z,3.37
2023-05-17T06:42:45.765Z,3.93
2023-05-17T06:45:13.426Z,3.70
2023-05-17T06:47:41.637Z,3.13
2023-05-17T06:50:09.955Z,3.40
2023-05-17T06:52:38.913Z,3.87
2023-05-17T06:55:07.463Z,3.50
2023-05-17T06:57:35.030Z,4.10
2023-05-17T07:00:02.562Z,3.60
2023-05-17T07:02:33.094Z,3.63
2023-05-17T07:05:02.102Z,3.17
2023-05-17T07:07:29.754Z,3.60
2023-05-17T07:09:58.679Z,3.57
2023-05-17T07:12:26.329Z,3.90
2023-05-17T07:14:55.008Z,3.60
2023-05-17T07:17:22.683Z,3.83
2023-05-17T07:19:51.233Z,3.30
2023-05-17T07:22:19.351Z,3.37
2023-05-17T07:24:47.011Z,3.47
2023-05-17T07:27:16.162Z,3.57
2023-05-17T07:29:43.617Z,3.03
2023-05-17T07:32:11.130Z,3.17
2023-05-17T07:34:38.641Z,3.17
2023-05-17T07:37:06.066Z,3.43
2023-05-17T07:39:33.538Z,2.77
2023-05-17T07:42:01.917Z,2.90
2023-05-17T07:44:31.509Z,2.67
2023-05-17T07:46:59.270Z,2.90
2023-05-17T07:49:28.045Z,3.23
2023-05-17T07:51:56.276Z,2.83
2023-05-17T07:54:24.874Z,3.23
2023-05-17T07:56:55.094Z,2.40
2023-05-17T07:59:22.512Z,2.73
2023-05-17T08:01:51.323Z,2.20
2023-05-17T08:04:19.365Z,2.90
2023-05-17T08:06:48.281Z,2.37
2023-05-17T08:09:16.700Z,2.13
2023-05-17T08:11:46.016Z,2.20
2023-05-17T08:14:14.674Z,2.10
2023-05-17T08:16:43.077Z,1.70
2023-05-17T08:19:14.928Z,1.83
2023-05-17T08:21:43.112Z,2.40
2023-05-17T08:24:11.951Z,2.10
2023-05-17T08:26:39.384Z,2.13
2023-05-17T08:29:07.329Z,2.20
2023-05-17T08:31:34.748Z,2.50
2023-05-17T08:34:06.027Z,2.47
2023-05-17T08:36:35.498Z,2.40
2023-05-17T08:39:04.138Z,2.43
2023-05-17T08:41:31.826Z,2.50
2023-05-17T08:44:00.035Z,2.50
2023-05-17T08:46:28.380Z,2.30
2023-05-17T08:48:59.955Z,2.30
2023-05-17T08:51:28.633Z,2.40
2023-05-17T08:53:57.491Z,2.50
2023-05-17T08:56:27.153Z,2.20
2023-05-17T08:58:57.876Z,2.70
2023-05-17T09:01:27.857Z,2.87
2023-05-17T09:03:56.771Z,2.83
2023-05-17T09:06:25.029Z,2.33
2023-05-17T09:08:52.724Z,2.90
2023-05-17T09:11:27.896Z,3.03
2023-05-17T09:13:58.703Z,2.60
2023-05-17T09:16:28.337Z,2.50
2023-05-17T09:18:56.449Z,2.93
2023-05-17T09:21:23.962Z,2.80
2023-05-17T09:24:04.808Z,2.97
2023-05-17T09:26:41.440Z,2.93
2023-05-17T09:29:09.866Z,3.37
2023-05-17T09:31:37.307Z,2.60
2023-05-17T09:34:07.109Z,2.40
2023-05-17T09:36:36.164Z,2.57
2023-05-17T09:39:05.855Z,2.67
2023-05-17T09:41:33.848Z,2.33
2023-05-17T09:44:03.262Z,2.40
2023-05-17T09:46:34.433Z,1.90
2023-05-17T09:49:03.209Z,2.73
2023-05-17T09:51:34.412Z,2.50
2023-05-17T09:54:02.070Z,2.40
2023-05-17T09:56:29.676Z,1.80
2023-05-17T09:58:57.821Z,2.50
2023-05-17T10:01:28.717Z,2.73
2023-05-17T10:03:56.628Z,2.23
2023-05-17T10:06:39.206Z,2.13
2023-05-17T10:09:13.584Z,2.10
2023-05-17T10:11:43.005Z,1.73
2023-05-17T10:14:12.133Z,2.20
2023-05-17T10:16:40.941Z,2.27
2023-05-17T10:19:08.690Z,2.30
2023-05-17T10:21:37.211Z,1.97
2023-05-17T10:24:05.346Z,2.33
2023-05-17T10:26:33.413Z,2.03
2023-05-17T10:29:01.682Z,2.10
2023-05-17T10:31:30.029Z,2.00
2023-05-17T10:34:00.054Z,1.40
2023-05-17T10:36:27.629Z,1.90
2023-05-17T10:38:55.342Z,1.90
2023-05-17T10:41:24.134Z,1.67
2023-05-17T10:43:52.096Z,1.83
2023-05-17T10:46:21.393Z,1.83
2023-05-17T10:48:49.432Z,1.50
2023-05-17T10:51:23.951Z,1.70
2023-05-17T10:54:10.744Z,1.50
2023-05-17T10:56:41.321Z,1.57
2023-05-17T10:59:18.810Z,1.60
2023-05-17T11:01:50.052Z,1.50
2023-05-17T11:04:25.702Z,1.70
2023-05-17T11:06:57.337Z,1.63
2023-05-17T11:09:25.361Z,1.57
2023-05-17T11:12:05.523Z,1.37
2023-05-17T11:14:53.492Z,1.30
2023-05-17T11:17:21.756Z,1.70
2023-05-17T11:20:10.869Z,1.60
2023-05-17T11:22:42.425Z,1.77
2023-05-17T11:25:10.927Z,3.10
2023-05-17T11:27:39.201Z,1.40
2023-05-17T11:30:11.130Z,1.20
2023-05-17T11:32:38.613Z,1.80
2023-05-17T11:35:07.191Z,1.50
2023-05-17T11:37:34.631Z,1.80
2023-05-17T11:40:04.827Z,1.90
2023-05-17T11:42:32.995Z,1.67
2023-05-17T11:45:01.973Z,1.77
2023-05-17T11:47:29.778Z,1.53
2023-05-17T11:50:01.330Z,1.70
2023-05-17T11:52:29.650Z,1.33
2023-05-17T11:54:57.761Z,1.30
2023-05-17T11:57:32.576Z,1.50
2023-05-17T12:00:00.296Z,1.40
2023-05-17T12:02:28.814Z,1.70
2023-05-17T12:04:56.438Z,1.40
2023-05-17T12:07:24.512Z,1.57
2023-05-17T12:09:52.533Z,1.30
2023-05-17T12:12:22.728Z,1.03
2023-05-17T12:14:51.801Z,1.37
2023-05-17T12:17:23.292Z,1.60
2023-05-17T12:19:53.240Z,1.10
2023-05-17T12:22:20.748Z,1.53
2023-05-17T12:24:48.619Z,1.33
2023-05-17T12:27:25.594Z,1.40
2023-05-17T12:29:54.507Z,1.67
2023-05-17T12:32:25.657Z,1.70
2023-05-17T12:34:53.161Z,1.10
2023-05-17T12:37:21.049Z,1.40
2023-05-17T12:39:48.606Z,1.07
2023-05-17T12:42:16.165Z,1.33
2023-05-17T12:44:43.566Z,1.40
2023-05-17T12:47:12.549Z,1.30
2023-05-17T12:49:40.753Z,1.10
2023-05-17T12:52:08.365Z,1.37
2023-05-17T12:54:36.237Z,1.30
2023-05-17T12:57:13.904Z,1.20
2023-05-17T12:59:48.774Z,1.37
2023-05-17T13:02:18.250Z,1.30
2023-05-17T13:04:46.602Z,1.70
2023-05-17T13:07:21.890Z,1.40
2023-05-17T13:09:49.785Z,1.23
2023-05-17T13:12:20.330Z,1.70
2023-05-17T13:14:48.832Z,1.53
2023-05-17T13:17:20.739Z,1.40
2023-05-17T13:19:48.462Z,1.43
2023-05-17T13:22:16.337Z,1.17
2023-05-17T13:24:44.384Z,1.20
2023-05-17T13:27:12.379Z,1.77
2023-05-17T13:29:43.654Z,1.33
2023-05-17T13:32:12.461Z,1.60
2023-05-17T13:34:41.685Z,1.17
2023-05-17T13:37:12.130Z,1.30
2023-05-17T13:39:40.131Z,1.23
2023-05-17T13:42:08.085Z,1.87
2023-05-17T13:44:35.495Z,1.40
2023-05-17T13:47:03.051Z,1.60
2023-05-17T13:49:31.011Z,1.50
2023-05-17T13:52:00.659Z,1.30
2023-05-17T13:54:28.230Z,1.63
2023-05-17T13:56:57.377Z,1.60
2023-05-17T13:59:24.816Z,1.50
2023-05-17T14:01:52.568Z,1.73
2023-05-17T14:04:21.245Z,1.40
2023-05-17T14:06:49.494Z,1.80
2023-05-17T14:09:21.963Z,1.80
2023-05-17T14:11:49.382Z,1.43
2023-05-17T14:14:17.112Z,1.50
2023-05-17T14:16:44.570Z,1.50
2023-05-17T14:19:12.077Z,1.40
2023-05-17T14:21:39.646Z,1.50
2023-05-17T14:24:07.292Z,1.40
2023-05-17T14:26:37.117Z,1.53
2023-05-17T14:29:05.703Z,1.50
2023-05-17T14:31:34.268Z,1.77
2023-05-17T14:34:03.712Z,1.57
2023-05-17T14:36:31.788Z,1.50
2023-05-17T14:38:59.507Z,1.40
2023-05-17T14:41:27.089Z,1.30
2023-05-17T14:43:56.552Z,1.33
2023-05-17T14:46:24.521Z,1.40
2023-05-17T14:48:52.505Z,1.37
2023-05-17T14:51:20.141Z,1.23
2023-05-17T14:53:47.646Z,1.40
2023-05-17T14:56:15.265Z,1.30
2023-05-17T14:58:43.096Z,1.30
2023-05-17T15:01:12.183Z,1.30
2023-05-17T15:03:40.439Z,1.60
2023-05-17T15:06:11.657Z,1.50
2023-05-17T15:08:41.141Z,1.23
2023-05-17T15:11:10.537Z,1.53
2023-05-17T15:13:38.710Z,1.70
2023-05-17T15:16:07.538Z,1.30
2023-05-17T15:18:37.852Z,1.57
2023-05-17T15:21:06.572Z,1.37
2023-05-17T15:23:34.177Z,1.27
2023-05-17T15:26:02.250Z,1.47
2023-05-17T15:28:30.061Z,1.00
2023-05-17T15:31:01.528Z,1.30
2023-05-17T15:33:29.070Z,1.40
2023-05-17T15:35:57.853Z,1.50
2023-05-17T15:38:25.225Z,1.03
2023-05-17T15:41:01.078Z,1.20
2023-05-17T15:43:28.690Z,1.10
2023-05-17T15:45:56.328Z,1.10
2023-05-17T15:48:26.265Z,2.00
2023-05-17T15:50:53.844Z,1.50
2023-05-17T15:53:22.718Z,1.30
2023-05-17T15:55:51.123Z,1.27
2023-05-17T15:58:18.613Z,1.33
2023-05-17T16:00:47.622Z,0.90
2023-05-17T16:03:15.668Z,0.90
2023-05-17T16:05:43.518Z,1.17
2023-05-17T16:08:12.292Z,1.13
2023-05-17T16:10:41.237Z,1.23
2023-05-17T16:13:08.855Z,1.40
2023-05-17T16:15:36.369Z,1.30
2023-05-17T16:18:04.031Z,1.27
2023-05-17T16:20:31.632Z,1.20
2023-05-17T16:22:59.051Z,1.23
2023-05-17T16:25:26.515Z,1.20
2023-05-17T16:27:55.320Z,1.47
2023-05-17T16:30:22.966Z,1.30
2023-05-17T16:32:50.625Z,1.50
2023-05-17T16:35:22.212Z,1.10
2023-05-17T16:37:50.125Z,1.40
2023-05-17T16:40:18.045Z,1.20
2023-05-17T16:42:45.739Z,1.20
2023-05-17T16:45:14.721Z,1.20
2023-05-17T16:47:42.181Z,1.47
2023-05-17T16:50:10.680Z,1.30
2023-05-17T16:52:38.186Z,1.00
2023-05-17T16:55:06.206Z,1.10
2023-05-17T16:57:33.778Z,1.23
2023-05-17T17:00:01.968Z,1.17
2023-05-17T17:02:31.169Z,1.43
2023-05-17T17:04:59.208Z,1.53
2023-05-17T17:07:26.881Z,1.23
2023-05-17T17:09:54.260Z,1.40
2023-05-17T17:12:25.775Z,1.20
2023-05-17T17:14:53.893Z,1.20
2023-05-17T17:17:21.369Z,1.00
2023-05-17T17:19:50.342Z,1.00
2023-05-17T17:22:18.043Z,1.20
2023-05-17T17:24:45.696Z,1.33
2023-05-17T17:27:13.138Z,1.67
2023-05-17T17:29:40.561Z,1.20
2023-05-17T17:32:08.931Z,1.47
2023-05-17T17:34:36.387Z,1.00
2023-05-17T17:37:06.209Z,1.20
2023-05-17T17:39:33.996Z,1.10
2023-05-17T17:42:01.860Z,1.90
2023-05-17T17:44:29.237Z,1.17
2023-05-17T17:46:56.951Z,1.20
2023-05-17T17:49:24.348Z,1.13
2023-05-17T17:51:51.968Z,1.43
2023-05-17T17:54:21.019Z,1.30
2023-05-17T17:56:48.691Z,1.43
2023-05-17T17:59:16.693Z,1.73
2023-05-17T18:01:44.424Z,1.23
2023-05-17T18:04:13.532Z,1.10
2023-05-17T18:06:43.689Z,0.87
2023-05-17T18:09:11.453Z,1.13
2023-05-17T18:11:40.326Z,1.00
2023-05-17T18:14:08.283Z,1.20
2023-05-17T18:16:35.847Z,1.47
2023-05-17T18:19:03.559Z,1.23
2023-05-17T18:21:31.174Z,0.90
2023-05-17T18:23:58.598Z,1.00
2023-05-17T18:26:26.201Z,1.07
2023-05-17T18:28:55.636Z,1.07
2023-05-17T18:31:22.996Z,1.30
2023-05-17T18:33:50.390Z,0.90
2023-05-17T18:36:17.773Z,1.00
2023-05-17T18:38:45.359Z,1.00
2023-05-17T18:41:13.362Z,1.07
2023-05-17T18:43:40.785Z,1.50
2023-05-17T18:46:09.632Z,1.27
2023-05-17T18:48:37.033Z,1.10
2023-05-17T18:51:04.572Z,1.03
2023-05-17T18:53:32.045Z,0.87
2023-05-17T18:56:01.632Z,1.00
2023-05-17T18:58:29.168Z,1.23
2023-05-17T19:00:56.560Z,0.90
2023-05-17T19:03:25.526Z,1.50
2023-05-17T19:05:52.998Z,1.27
2023-05-17T19:08:20.986Z,1.10
2023-05-17T19:10:48.558Z,0.77
2023-05-17T19:13:16.234Z,1.00
2023-05-17T19:15:44.029Z,1.20
2023-05-17T19:18:11.724Z,1.27
2023-05-17T19:20:40.619Z,1.20
2023-05-17T19:23:08.041Z,1.33
2023-05-17T19:25:35.597Z,1.00
2023-05-17T19:28:03.166Z,1.20
2023-05-17T19:30:32.709Z,1.20
2023-05-17T19:33:00.585Z,0.97
2023-05-17T19:35:28.349Z,1.00
2023-05-17T19:37:57.492Z,0.90
2023-05-17T19:40:25.128Z,1.00
2023-05-17T19:42:52.619Z,0.80
2023-05-17T19:45:20.206Z,1.10
2023-05-17T19:47:47.871Z,1.13
2023-05-17T19:50:16.770Z,1.00
2023-05-17T19:52:44.187Z,0.80
2023-05-17T19:55:15.101Z,1.20
2023-05-17T19:57:42.690Z,1.57
2023-05-17T20:00:10.826Z,0.90
2023-05-17T20:02:38.574Z,1.27
2023-05-17T20:05:06.352Z,1.10
2023-05-17T20:07:34.019Z,1.10
2023-05-17T20:10:01.452Z,0.90
2023-05-17T20:12:30.229Z,0.90
2023-05-17T20:14:57.621Z,1.07
2023-05-17T20:17:25.305Z,1.20
2023-05-17T20:19:52.732Z,1.13
2023-05-17T20:22:21.262Z,1.10
2023-05-17T20:24:48.649Z,0.90
2023-05-17T20:27:16.638Z,1.10
2023-05-17T20:29:45.329Z,1.07
2023-05-17T20:32:12.894Z,1.03
2023-05-17T20:34:40.463Z,0.90
2023-05-17T20:37:08.086Z,1.00
2023-05-17T20:39:36.450Z,1.60
2023-05-17T20:42:03.935Z,1.40
2023-05-17T20:44:33.233Z,1.13
2023-05-17T20:47:02.738Z,1.00
2023-05-17T20:49:30.748Z,1.40
2023-05-17T20:52:02.217Z,1.73
2023-05-17T20:54:30.841Z,1.60
2023-05-17T20:56:58.497Z,1.40
2023-05-17T20:59:26.504Z,1.20
2023-05-17T21:01:54.393Z,1.10
2023-05-17T21:04:23.220Z,1.30
2023-05-17T21:06:50.710Z,1.20
2023-05-17T21:09:18.922Z,1.20
2023-05-17T21:11:46.391Z,1.30
2023-05-17T21:14:13.874Z,1.00
2023-05-17T21:16:41.894Z,1.77
2023-05-17T21:19:10.531Z,1.23
2023-05-17T21:21:39.258Z,1.50
2023-05-17T21:24:07.279Z,1.13
2023-05-17T21:26:36.915Z,0.93
2023-05-17T21:29:07.072Z,1.53
2023-05-17T21:31:34.569Z,1.33
2023-05-17T21:34:02.161Z,1.10
2023-05-17T21:36:29.877Z,1.30
2023-05-17T21:38:58.651Z,1.00
2023-05-17T21:41:27.099Z,1.10
2023-05-17T21:43:54.706Z,1.00
2023-05-17T21:46:22.320Z,1.30
2023-05-17T21:48:50.475Z,1.30
2023-05-17T21:51:21.895Z,1.40
2023-05-17T21:53:50.176Z,1.03
2023-05-17T21:56:18.987Z,1.33
2023-05-17T21:58:46.375Z,1.33
2023-05-17T22:01:13.910Z,1.63
2023-05-17T22:03:41.722Z,1.53
2023-05-17T22:06:09.286Z,1.10
2023-05-17T22:08:36.851Z,1.40
2023-05-17T22:11:05.885Z,1.17
2023-05-17T22:13:34.740Z,1.10
2023-05-17T22:16:02.261Z,1.40
2023-05-17T22:18:31.886Z,1.40
2023-05-17T22:20:59.618Z,1.23
2023-05-17T22:23:27.270Z,1.40
2023-05-17T22:25:57.062Z,1.20
2023-05-17T22:28:24.541Z,1.10
2023-05-17T22:30:54.079Z,1.30
2023-05-17T22:33:22.452Z,1.00
2023-05-17T22:35:53.516Z,1.60
2023-05-17T22:38:21.305Z,1.17
2023-05-17T22:40:49.491Z,1.30
2023-05-17T22:43:17.371Z,1.10
2023-05-17T22:45:44.790Z,1.40
2023-05-17T22:48:14.599Z,1.57
2023-05-17T22:50:42.278Z,1.10
2023-05-17T22:53:11.327Z,1.37
2023-05-17T22:55:38.783Z,1.30
2023-05-17T22:58:06.495Z,1.07
2023-05-17T23:00:34.001Z,0.90
2023-05-17T23:03:01.415Z,1.10
2023-05-17T23:05:30.836Z,1.03
2023-05-17T23:08:01.075Z,1.00
2023-05-17T23:10:29.685Z,1.10
2023-05-17T23:12:58.037Z,1.30
2023-05-17T23:15:25.943Z,1.00
2023-05-17T23:17:53.863Z,0.90
2023-05-17T23:20:24.567Z,1.20
2023-05-17T23:22:55.255Z,1.50
2023-05-17T23:25:22.801Z,1.10
2023-05-17T23:27:50.311Z,1.20
2023-05-17T23:30:17.952Z,1.00
2023-05-17T23:32:46.751Z,1.10
2023-05-17T23:35:14.267Z,1.20
2023-05-17T23:37:41.910Z,1.40
2023-05-17T23:40:11.501Z,1.30
2023-05-17T23:42:39.220Z,1.47
2023-05-17T23:45:07.417Z,0.90
2023-05-17T23:47:35.053Z,1.40
2023-05-17T23:50:03.576Z,1.50
2023-05-17T23:52:32.816Z,1.20
2023-05-17T23:55:01.542Z,1.00
2023-05-17T23:57:30.393Z,1.20
2023-05-17T23:59:58.016Z,1.10
